createdAt,value
2022-10-15T00:01:13.725Z,11.00
2022-10-15T00:06:47.240Z,11.01
2022-10-15T00:09:33.060Z,10.94
2022-10-15T00:12:18.704Z,10.91
2022-10-15T00:15:05.257Z,10.84
2022-10-15T00:17:50.898Z,10.87
2022-10-15T00:20:36.852Z,10.84
2022-10-15T00:23:23.194Z,10.79
2022-10-15T00:26:11.707Z,10.78
2022-10-15T00:29:01.349Z,10.75
2022-10-15T00:31:47.149Z,10.72
2022-10-15T00:34:33.163Z,10.71
2022-10-15T00:37:21.071Z,10.68
2022-10-15T00:40:08.574Z,10.60
2022-10-15T00:42:54.348Z,10.61
2022-10-15T00:45:39.978Z,10.60
2022-10-15T00:48:25.910Z,10.58
2022-10-15T00:51:11.975Z,10.55
2022-10-15T00:53:58.025Z,10.53
2022-10-15T00:56:45.310Z,10.51
2022-10-15T00:59:32.701Z,10.49
2022-10-15T01:02:20.213Z,10.44
2022-10-15T01:05:07.407Z,10.41
2022-10-15T01:07:53.249Z,10.44
2022-10-15T01:11:21.553Z,10.38
2022-10-15T01:14:38.304Z,10.39
2022-10-15T01:17:48.442Z,10.39
2022-10-15T01:21:02.371Z,10.39
2022-10-15T01:24:03.078Z,10.39
2022-10-15T01:27:21.667Z,10.17
2022-10-15T01:30:27.555Z,10.34
2022-10-15T01:33:35.245Z,10.35
2022-10-15T01:36:41.126Z,10.31
2022-10-15T01:39:32.527Z,10.28
2022-10-15T01:42:27.837Z,10.29
2022-10-15T01:45:20.246Z,10.23
2022-10-15T01:48:39.006Z,10.27
2022-10-15T01:51:25.505Z,10.21
2022-10-15T01:54:18.611Z,10.25
2022-10-15T01:57:05.837Z,10.20
2022-10-15T01:59:52.779Z,10.21
2022-10-15T02:02:42.435Z,10.21
2022-10-15T02:05:51.329Z,10.21
2022-10-15T02:08:53.817Z,10.21
2022-10-15T02:12:15.126Z,10.20
2022-10-15T02:15:12.344Z,10.16
2022-10-15T02:18:06.291Z,10.18
2022-10-15T02:20:59.019Z,10.14
2022-10-15T02:23:57.830Z,10.16
2022-10-15T02:26:45.510Z,10.17
2022-10-15T02:29:35.419Z,10.12
2022-10-15T02:32:22.867Z,10.11
2022-10-15T02:35:10.365Z,10.12
2022-10-15T02:38:02.849Z,10.09
2022-10-15T02:40:49.303Z,10.07
2022-10-15T02:43:36.657Z,10.06
2022-10-15T02:46:24.285Z,10.07
2022-10-15T02:49:09.889Z,9.99
2022-10-15T02:51:56.410Z,10.07
2022-10-15T02:54:42.433Z,10.09
2022-10-15T02:57:28.126Z,10.05
2022-10-15T03:00:14.785Z,10.08
2022-10-15T03:03:00.844Z,10.08
2022-10-15T03:05:47.705Z,10.08
2022-10-15T03:08:33.982Z,10.05
2022-10-15T03:11:25.467Z,10.06
2022-10-15T03:14:11.458Z,10.02
2022-10-15T03:16:57.484Z,10.00
2022-10-15T03:19:44.909Z,10.03
2022-10-15T03:22:31.101Z,10.00
2022-10-15T03:25:17.515Z,10.01
2022-10-15T03:28:04.024Z,9.98
2022-10-15T03:31:00.125Z,10.00
2022-10-15T03:33:46.277Z,9.98
2022-10-15T03:36:32.475Z,9.95
2022-10-15T03:39:19.905Z,9.96
2022-10-15T03:42:06.401Z,9.96
2022-10-15T03:45:03.957Z,9.88
2022-10-15T03:47:51.460Z,9.94
2022-10-15T03:50:37.389Z,9.93
2022-10-15T03:53:23.868Z,9.93
2022-10-15T03:56:09.910Z,9.93
2022-10-15T03:58:59.134Z,9.90
2022-10-15T04:01:45.603Z,9.91
2022-10-15T04:04:31.494Z,9.82
2022-10-15T04:07:17.815Z,9.91
2022-10-15T04:10:04.013Z,9.89
2022-10-15T04:12:56.871Z,9.84
2022-10-15T04:15:42.558Z,9.85
2022-10-15T04:18:31.761Z,9.85
2022-10-15T04:21:18.459Z,9.81
2022-10-15T04:24:10.175Z,9.78
2022-10-15T04:26:59.519Z,9.75
2022-10-15T04:29:48.052Z,9.74
2022-10-15T04:32:34.513Z,9.71
2022-10-15T04:35:20.770Z,9.66
2022-10-15T04:38:14.380Z,9.62
2022-10-15T04:41:31.058Z,9.64
2022-10-15T04:44:21.989Z,9.56
2022-10-15T04:47:13.380Z,9.54
2022-10-15T04:50:06.370Z,9.53
2022-10-15T04:53:15.455Z,9.50
2022-10-15T04:56:10.370Z,9.50
2022-10-15T04:58:57.076Z,9.44
2022-10-15T05:01:46.160Z,9.50
2022-10-15T05:04:31.930Z,9.52
2022-10-15T05:07:17.781Z,9.54
2022-10-15T05:10:04.849Z,9.53
2022-10-15T05:12:54.132Z,9.52
2022-10-15T05:15:48.931Z,9.57
2022-10-15T05:18:35.075Z,9.47
2022-10-15T05:21:21.375Z,9.61
2022-10-15T05:24:11.426Z,9.60
2022-10-15T05:27:20.402Z,9.67
2022-10-15T05:30:07.178Z,9.73
2022-10-15T05:33:03.077Z,9.73
2022-10-15T05:35:49.061Z,9.81
2022-10-15T05:38:34.987Z,9.82
2022-10-15T05:41:21.212Z,9.83
2022-10-15T05:44:07.350Z,9.93
2022-10-15T05:46:53.182Z,9.94
2022-10-15T05:49:42.076Z,10.02
2022-10-15T05:52:35.783Z,10.06
2022-10-15T05:55:21.628Z,10.11
2022-10-15T05:58:07.699Z,10.19
2022-10-15T06:00:55.091Z,10.23
2022-10-15T06:03:41.542Z,10.29
2022-10-15T06:06:27.759Z,10.35
2022-10-15T06:09:14.743Z,10.39
2022-10-15T06:12:00.327Z,10.43
2022-10-15T06:14:46.058Z,10.47
2022-10-15T06:17:32.295Z,10.53
2022-10-15T06:20:18.362Z,10.55
2022-10-15T06:23:05.616Z,10.66
2022-10-15T06:25:51.922Z,10.73
2022-10-15T06:28:38.403Z,10.79
2022-10-15T06:31:24.222Z,10.86
2022-10-15T06:34:09.993Z,10.88
2022-10-15T06:36:55.723Z,10.98
2022-10-15T06:39:41.755Z,11.03
2022-10-15T06:42:27.623Z,11.06
2022-10-15T06:45:16.927Z,11.12
2022-10-15T06:48:06.670Z,11.12
2022-10-15T06:50:53.018Z,11.19
2022-10-15T06:53:41.267Z,11.30
2022-10-15T06:56:27.023Z,11.35
2022-10-15T06:59:12.907Z,11.42
2022-10-15T07:01:58.854Z,11.50
2022-10-15T07:04:45.889Z,11.52
2022-10-15T07:07:36.934Z,11.53
2022-10-15T07:10:23.452Z,11.66
2022-10-15T07:13:09.313Z,11.75
2022-10-15T07:15:56.129Z,11.78
2022-10-15T07:18:41.997Z,11.85
2022-10-15T07:21:27.692Z,11.88
2022-10-15T07:24:13.357Z,11.93
2022-10-15T07:27:02.615Z,11.95
2022-10-15T07:29:54.364Z,11.95
2022-10-15T07:32:40.258Z,11.95
2022-10-15T07:35:27.373Z,11.98
2022-10-15T07:38:13.769Z,12.01
2022-10-15T07:41:01.379Z,12.04
2022-10-15T07:43:48.175Z,12.07
2022-10-15T07:46:34.030Z,12.05
2022-10-15T07:49:20.049Z,12.11
2022-10-15T07:52:05.786Z,12.09
2022-10-15T07:54:51.449Z,12.11
2022-10-15T07:57:38.266Z,12.12
2022-10-15T08:00:24.349Z,12.17
2022-10-15T08:03:10.055Z,12.22
2022-10-15T08:05:56.760Z,12.26
2022-10-15T08:08:43.233Z,12.26
2022-10-15T08:11:29.222Z,12.33
2022-10-15T08:14:18.075Z,12.32
2022-10-15T08:17:05.356Z,12.41
2022-10-15T08:19:51.284Z,12.50
2022-10-15T08:22:37.195Z,12.53
2022-10-15T08:25:23.292Z,12.67
2022-10-15T08:28:12.282Z,12.77
2022-10-15T08:31:02.710Z,12.87
2022-10-15T08:33:51.281Z,13.00
2022-10-15T08:36:37.029Z,13.07
2022-10-15T08:39:22.675Z,13.23
2022-10-15T08:42:20.570Z,13.35
2022-10-15T08:45:17.719Z,13.42
2022-10-15T08:48:10.555Z,13.63
2022-10-15T08:51:15.121Z,13.78
2022-10-15T08:54:02.900Z,13.96
2022-10-15T08:56:52.636Z,14.12
2022-10-15T08:59:46.609Z,14.26
2022-10-15T09:03:02.979Z,14.45
2022-10-15T09:06:07.980Z,14.64
2022-10-15T09:09:18.348Z,14.80
2022-10-15T09:12:36.440Z,14.92
2022-10-15T09:15:26.953Z,15.10
2022-10-15T09:18:25.175Z,15.24
2022-10-15T09:21:11.621Z,15.40
2022-10-15T09:24:01.883Z,15.56
2022-10-15T09:27:20.052Z,15.63
2022-10-15T09:30:45.554Z,15.93
2022-10-15T09:33:42.287Z,16.10
2022-10-15T09:36:52.907Z,16.24
2022-10-15T09:39:44.678Z,16.42
2022-10-15T09:42:34.714Z,16.57
2022-10-15T09:45:24.157Z,16.72
2022-10-15T09:48:20.330Z,16.87
2022-10-15T09:51:32.236Z,17.04
2022-10-15T09:54:36.278Z,17.26
2022-10-15T09:57:21.962Z,17.40
2022-10-15T10:00:10.312Z,17.60
2022-10-15T10:03:07.220Z,17.80
2022-10-15T10:06:04.676Z,18.02
2022-10-15T10:09:00.146Z,18.24
2022-10-15T10:11:49.309Z,18.38
2022-10-15T10:14:47.481Z,18.60
2022-10-15T10:17:33.283Z,18.78
2022-10-15T10:20:21.445Z,18.93
2022-10-15T10:23:25.107Z,19.16
2022-10-15T10:26:11.857Z,19.34
2022-10-15T10:29:05.001Z,19.61
2022-10-15T10:31:56.515Z,19.86
2022-10-15T10:34:49.992Z,20.08
2022-10-15T10:37:44.605Z,20.29
2022-10-15T10:40:36.289Z,20.50
2022-10-15T10:43:29.794Z,20.70
2022-10-15T10:46:15.683Z,20.87
2022-10-15T10:49:05.838Z,20.94
2022-10-15T10:51:51.500Z,21.13
2022-10-15T10:54:37.388Z,21.36
2022-10-15T10:57:47.989Z,21.64
2022-10-15T11:00:43.958Z,22.08
2022-10-15T11:03:39.221Z,22.69
2022-10-15T11:06:37.230Z,23.55
2022-10-15T11:09:45.424Z,24.85
2022-10-15T11:12:43.018Z,26.38
2022-10-15T11:15:44.462Z,28.20
2022-10-15T11:18:39.277Z,29.94
2022-10-15T11:21:37.076Z,31.76
2022-10-15T11:24:49.108Z,33.78
2022-10-15T11:28:03.363Z,35.37
2022-10-15T11:31:14.055Z,37.26
2022-10-15T11:34:00.051Z,38.13
2022-10-15T11:37:04.401Z,39.23
2022-10-15T11:40:16.063Z,40.56
2022-10-15T11:43:17.817Z,41.32
2022-10-15T11:46:26.888Z,42.34
2022-10-15T11:53:41.587Z,44.48
2022-10-15T11:56:36.507Z,44.91
2022-10-15T11:59:33.709Z,45.53
2022-10-15T12:02:33.310Z,46.22
2022-10-15T12:05:22.682Z,46.54
2022-10-15T12:08:10.869Z,46.91
2022-10-15T12:11:18.085Z,47.41
2022-10-15T12:14:31.390Z,47.89
2022-10-15T12:17:26.209Z,47.86
2022-10-15T12:20:14.813Z,47.98
2022-10-15T12:23:02.505Z,48.17
2022-10-15T12:25:48.781Z,48.34
2022-10-15T12:28:35.066Z,48.43
2022-10-15T12:31:22.029Z,48.53
2022-10-15T12:34:26.037Z,49.03
2022-10-15T12:37:18.983Z,48.97
2022-10-15T12:40:23.075Z,49.35
2022-10-15T12:43:21.366Z,49.26
2022-10-15T12:46:10.820Z,48.97
2022-10-15T12:48:58.221Z,48.88
2022-10-15T12:51:43.926Z,48.76
2022-10-15T12:54:47.032Z,49.05
2022-10-15T12:57:38.875Z,48.63
2022-10-15T13:00:33.762Z,48.65
2022-10-15T13:03:34.244Z,48.51
2022-10-15T13:06:23.226Z,48.04
2022-10-15T13:09:12.141Z,47.83
2022-10-15T13:11:59.799Z,47.47
2022-10-15T13:14:52.283Z,47.40
2022-10-15T13:17:40.230Z,47.15
2022-10-15T13:20:32.001Z,46.97
2022-10-15T13:23:29.997Z,46.63
2022-10-15T13:26:22.473Z,46.29
2022-10-15T13:29:15.634Z,46.15
2022-10-15T13:32:01.973Z,45.80
2022-10-15T13:34:48.230Z,45.54
2022-10-15T13:37:35.910Z,45.28
2022-10-15T13:40:27.237Z,44.93
2022-10-15T13:43:21.589Z,44.47
2022-10-15T13:46:10.575Z,43.73
2022-10-15T13:49:04.628Z,43.13
2022-10-15T13:51:52.321Z,42.59
2022-10-15T13:54:39.063Z,42.01
2022-10-15T13:57:24.836Z,41.41
2022-10-15T14:00:21.398Z,40.79
2022-10-15T14:03:18.993Z,40.11
2022-10-15T14:06:20.445Z,39.47
2022-10-15T14:09:24.297Z,38.78
2022-10-15T14:12:11.678Z,37.79
2022-10-15T14:15:35.619Z,36.86
2022-10-15T14:18:38.197Z,35.32
2022-10-15T14:21:29.248Z,34.00
2022-10-15T14:24:17.628Z,32.75
2022-10-15T14:27:14.979Z,31.65
2022-10-15T14:30:02.715Z,30.53
2022-10-15T14:32:52.845Z,29.55
2022-10-15T14:35:38.885Z,28.67
2022-10-15T14:38:26.176Z,27.94
2022-10-15T14:41:25.839Z,27.25
2022-10-15T14:44:11.805Z,26.55
2022-10-15T14:47:02.313Z,25.96
2022-10-15T14:49:50.545Z,25.42
2022-10-15T14:52:37.074Z,24.92
2022-10-15T14:55:33.614Z,24.47
2022-10-15T14:58:24.034Z,24.06
2022-10-15T15:01:16.158Z,23.64
2022-10-15T15:04:02.013Z,23.32
2022-10-15T15:06:47.980Z,23.01
2022-10-15T15:09:33.965Z,22.70
2022-10-15T15:12:24.286Z,22.40
2022-10-15T15:15:14.960Z,22.14
2022-10-15T15:18:00.866Z,21.89
2022-10-15T15:20:48.404Z,21.65
2022-10-15T15:23:34.512Z,21.43
2022-10-15T15:26:20.228Z,21.23
2022-10-15T15:29:13.909Z,21.05
2022-10-15T15:32:00.137Z,20.88
2022-10-15T15:34:47.294Z,20.73
2022-10-15T15:37:33.107Z,20.56
2022-10-15T15:40:19.329Z,20.44
2022-10-15T15:43:05.134Z,20.27
2022-10-15T15:45:51.138Z,20.17
2022-10-15T15:48:37.791Z,20.02
2022-10-15T15:51:27.766Z,19.95
2022-10-15T15:54:13.376Z,19.84
2022-10-15T15:56:59.227Z,19.68
2022-10-15T15:59:45.355Z,19.63
2022-10-15T16:02:31.060Z,19.54
2022-10-15T16:05:17.200Z,19.45
2022-10-15T16:08:03.071Z,19.33
2022-10-15T16:10:48.887Z,19.28
2022-10-15T16:13:35.389Z,19.19
2022-10-15T16:16:21.471Z,19.09
2022-10-15T16:19:07.837Z,19.04
2022-10-15T16:21:53.559Z,18.96
2022-10-15T16:24:39.330Z,18.84
2022-10-15T16:27:26.893Z,18.73
2022-10-15T16:30:13.213Z,18.67
2022-10-15T16:32:58.794Z,18.54
2022-10-15T16:35:44.649Z,18.49
2022-10-15T16:38:30.538Z,18.39
2022-10-15T16:41:19.280Z,18.24
2022-10-15T16:44:05.089Z,18.17
2022-10-15T16:46:50.962Z,18.10
2022-10-15T16:49:36.703Z,18.00
2022-10-15T16:52:24.123Z,17.88
2022-10-15T16:55:10.410Z,17.84
2022-10-15T16:57:56.332Z,17.76
2022-10-15T17:00:42.253Z,17.68
2022-10-15T17:03:29.561Z,17.59
2022-10-15T17:06:18.362Z,17.53
2022-10-15T17:09:04.605Z,17.44
2022-10-15T17:11:50.690Z,17.36
2022-10-15T17:14:36.999Z,17.27
2022-10-15T17:17:23.373Z,17.19
2022-10-15T17:20:09.358Z,17.12
2022-10-15T17:22:57.995Z,17.03
2022-10-15T17:25:44.687Z,16.90
2022-10-15T17:28:31.951Z,16.91
2022-10-15T17:31:22.233Z,16.83
2022-10-15T17:34:11.169Z,16.79
2022-10-15T17:36:57.612Z,16.72
2022-10-15T17:39:43.370Z,16.66
2022-10-15T17:42:29.387Z,16.62
2022-10-15T17:45:15.748Z,16.55
2022-10-15T17:48:02.634Z,16.46
2022-10-15T17:50:48.459Z,16.42
2022-10-15T17:53:34.488Z,16.35
2022-10-15T17:56:26.418Z,16.25
2022-10-15T17:59:15.434Z,16.15
2022-10-15T18:02:02.106Z,16.08
2022-10-15T18:04:52.759Z,16.03
2022-10-15T18:07:38.469Z,15.96
2022-10-15T18:10:24.180Z,15.84
2022-10-15T18:13:09.776Z,15.76
2022-10-15T18:15:59.355Z,15.72
2022-10-15T18:18:47.547Z,15.65
2022-10-15T18:21:33.263Z,15.54
2022-10-15T18:24:23.595Z,15.54
2022-10-15T18:27:09.841Z,15.41
2022-10-15T18:29:55.587Z,15.36
2022-10-15T18:32:41.332Z,15.27
2022-10-15T18:35:27.059Z,15.24
2022-10-15T18:38:12.872Z,15.12
2022-10-15T18:40:58.829Z,15.11
2022-10-15T18:43:49.114Z,15.04
2022-10-15T18:46:35.385Z,14.95
2022-10-15T18:49:21.528Z,14.86
2022-10-15T18:52:21.457Z,14.79
2022-10-15T18:55:13.102Z,14.68
2022-10-15T18:58:02.199Z,14.67
2022-10-15T19:00:48.249Z,14.52
2022-10-15T19:03:34.217Z,14.56
2022-10-15T19:06:21.890Z,14.53
2022-10-15T19:09:14.746Z,14.51
2022-10-15T19:12:01.378Z,14.46
2022-10-15T19:14:52.088Z,14.45
2022-10-15T19:17:40.576Z,14.35
2022-10-15T19:20:31.456Z,14.31
2022-10-15T19:23:21.041Z,14.29
2022-10-15T19:26:11.213Z,14.29
2022-10-15T19:28:57.816Z,14.22
2022-10-15T19:31:45.079Z,14.21
2022-10-15T19:34:31.021Z,14.15
2022-10-15T19:37:17.019Z,14.07
2022-10-15T19:40:08.526Z,14.05
2022-10-15T19:42:54.381Z,14.01
2022-10-15T19:45:45.164Z,13.87
2022-10-15T19:48:31.616Z,13.95
2022-10-15T19:51:17.780Z,13.91
2022-10-15T19:54:04.162Z,13.87
2022-10-15T19:56:50.200Z,13.82
2022-10-15T19:59:36.136Z,13.76
2022-10-15T20:02:21.906Z,13.75
2022-10-15T20:05:09.147Z,13.68
2022-10-15T20:07:55.123Z,13.68
2022-10-15T20:10:42.127Z,13.65
2022-10-15T20:13:27.950Z,13.53
2022-10-15T20:16:19.649Z,13.48
2022-10-15T20:19:09.926Z,13.50
2022-10-15T20:21:56.053Z,13.44
2022-10-15T20:24:42.153Z,13.38
2022-10-15T20:27:27.966Z,13.31
2022-10-15T20:30:14.248Z,13.19
2022-10-15T20:33:00.242Z,13.20
2022-10-15T20:35:46.962Z,13.02
2022-10-15T20:38:33.157Z,13.06
2022-10-15T20:41:19.589Z,13.05
2022-10-15T20:44:05.608Z,13.03
2022-10-15T20:46:54.659Z,12.98
2022-10-15T20:49:43.223Z,12.94
2022-10-15T20:52:29.779Z,12.92
2022-10-15T20:55:15.618Z,12.84
2022-10-15T20:58:01.775Z,12.78
2022-10-15T21:00:47.612Z,12.77
2022-10-15T21:03:34.596Z,12.72
2022-10-15T21:06:20.766Z,12.69
2022-10-15T21:09:07.407Z,12.68
2022-10-15T21:11:53.437Z,12.63
2022-10-15T21:14:39.245Z,12.62
2022-10-15T21:17:25.376Z,12.61
2022-10-15T21:20:11.872Z,12.58
2022-10-15T21:22:58.116Z,12.40
2022-10-15T21:25:44.058Z,12.51
2022-10-15T21:28:30.891Z,12.50
2022-10-15T21:31:17.594Z,12.46
2022-10-15T21:34:03.250Z,12.44
2022-10-15T21:36:49.118Z,12.39
2022-10-15T21:39:34.918Z,12.37
2022-10-15T21:42:20.589Z,12.36
2022-10-15T21:45:09.260Z,12.32
2022-10-15T21:47:55.628Z,12.27
2022-10-15T21:50:47.088Z,12.23
2022-10-15T21:53:33.577Z,12.26
2022-10-15T21:56:20.077Z,12.21
2022-10-15T21:59:06.177Z,12.15
2022-10-15T22:01:52.176Z,12.13
2022-10-15T22:04:37.943Z,12.04
2022-10-15T22:07:23.950Z,12.06
2022-10-15T22:10:10.052Z,12.03
2022-10-15T22:12:57.881Z,12.01
2022-10-15T22:15:43.787Z,11.99
2022-10-15T22:18:29.812Z,11.95
2022-10-15T22:21:19.425Z,11.92
2022-10-15T22:24:08.356Z,11.88
2022-10-15T22:26:54.166Z,11.79
2022-10-15T22:29:41.266Z,11.82
2022-10-15T22:32:27.910Z,11.76
2022-10-15T22:35:14.158Z,11.67
2022-10-15T22:37:59.850Z,11.65
2022-10-15T22:40:53.434Z,11.59
2022-10-15T22:43:39.912Z,11.53
2022-10-15T22:46:26.380Z,11.53
2022-10-15T22:49:13.079Z,11.46
2022-10-15T22:51:58.876Z,11.47
2022-10-15T22:54:44.540Z,11.38
2022-10-15T22:57:30.415Z,11.42
2022-10-15T23:00:16.140Z,11.37
2022-10-15T23:03:02.453Z,11.30
2022-10-15T23:05:53.257Z,11.30
2022-10-15T23:08:39.736Z,11.24
2022-10-15T23:11:27.288Z,11.26
2022-10-15T23:14:15.293Z,11.24
2022-10-15T23:17:01.021Z,11.20
2022-10-15T23:19:46.701Z,11.13
2022-10-15T23:22:32.370Z,11.15
2022-10-15T23:25:18.047Z,11.11
2022-10-15T23:28:03.991Z,11.06
2022-10-15T23:30:49.900Z,11.06
2022-10-15T23:33:35.595Z,11.05
2022-10-15T23:36:22.548Z,11.03
2022-10-15T23:39:08.572Z,10.97
2022-10-15T23:41:54.486Z,11.01
2022-10-15T23:44:40.437Z,10.96
2022-10-15T23:47:26.593Z,10.90
2022-10-15T23:50:12.605Z,10.93
2022-10-15T23:52:58.457Z,10.90
2022-10-15T23:55:44.442Z,10.86
2022-10-15T23:58:32.364Z,10.83
